Time;durP1;ratioP1;P1;durP2;ratioP2;P2;SDS_P1;SDS_P2;PMS_P1;PMS_P2;Temp;Humidity;BMP_temperature;BMP_pressure;BME280_temperature;BME280_humidity;BME280_pressure;Samples;Min_cycle;Max_cycle;Signal;HPM_P1;HPM_P2
2022/07/26 00:01:21;;;;;;;3.43;3.10;;;29.30;54.30;;;;;;5054042;28;20438;-70
2022/07/26 00:03:53;;;;;;;3.70;2.80;;;29.20;54.80;;;;;;5068505;28;20476;-71
2022/07/26 00:06:22;;;;;;;4.53;2.67;;;29.00;54.80;;;;;;5063588;28;20481;-71
2022/07/26 00:08:50;;;;;;;4.60;2.73;;;29.00;55.30;;;;;;5071606;28;20481;-70
2022/07/26 00:11:19;;;;;;;5.10;3.10;;;29.10;55.00;;;;;;5073114;28;20977;-70
2022/07/26 00:13:50;;;;;;;4.63;2.97;;;29.00;55.30;;;;;;5068494;28;20480;-70
2022/07/26 00:16:18;;;;;;;3.37;3.07;;;28.90;55.30;;;;;;5072620;28;20461;-71
2022/07/26 00:18:47;;;;;;;4.67;3.93;;;28.90;55.40;;;;;;5073365;28;20432;-71
2022/07/26 00:21:15;;;;;;;5.20;4.00;;;29.10;55.00;;;;;;5068492;28;20532;-71
2022/07/26 00:23:44;;;;;;;4.23;3.00;;;29.00;55.30;;;;;;5064047;28;20520;-71
2022/07/26 00:26:12;;;;;;;6.83;3.30;;;28.90;56.00;;;;;;5067664;28;20459;-70
2022/07/26 00:28:41;;;;;;;5.33;3.40;;;28.80;56.40;;;;;;5073197;28;20484;-71
2022/07/26 00:31:11;;;;;;;2.90;2.70;;;28.90;56.10;;;;;;5073316;28;20443;-70
2022/07/26 00:33:40;;;;;;;4.07;3.20;;;28.80;56.40;;;;;;5072661;28;20905;-71
2022/07/26 00:36:09;;;;;;;3.33;2.90;;;28.80;56.10;;;;;;5071901;28;20495;-71
2022/07/26 00:38:37;;;;;;;4.53;2.73;;;28.90;55.70;;;;;;5067288;28;20463;-71
2022/07/26 00:41:09;;;;;;;7.23;3.03;;;29.00;55.70;;;;;;5056945;28;20508;-71
2022/07/26 00:43:37;;;;;;;4.97;3.50;;;29.00;55.40;;;;;;5064780;28;20494;-70
2022/07/26 00:46:09;;;;;;;3.13;2.93;;;29.00;55.40;;;;;;5062072;28;20528;-70
2022/07/26 00:48:38;;;;;;;5.00;3.30;;;29.00;55.60;;;;;;5052797;28;20889;-70
2022/07/26 00:51:09;;;;;;;3.60;3.30;;;29.00;55.50;;;;;;5052729;28;21063;-71
2022/07/26 00:53:37;;;;;;;3.70;3.00;;;29.00;55.50;;;;;;5052866;28;20456;-70
2022/07/26 00:56:06;;;;;;;3.50;3.30;;;29.00;55.50;;;;;;5065134;28;20459;-70
2022/07/26 00:58:34;;;;;;;3.20;2.90;;;29.00;55.40;;;;;;5051094;28;20522;-70
2022/07/26 01:01:05;;;;;;;3.53;3.23;;;28.90;55.60;;;;;;5052326;28;20471;-70
2022/07/26 01:03:35;;;;;;;3.90;2.67;;;28.80;56.00;;;;;;5057204;28;20447;-70
2022/07/26 01:06:07;;;;;;;2.50;2.30;;;28.70;56.20;;;;;;5055457;28;20452;-70
2022/07/26 01:08:35;;;;;;;3.33;2.87;;;28.80;56.00;;;;;;5071414;28;20440;-74
2022/07/26 01:11:07;;;;;;;3.23;2.97;;;28.80;56.00;;;;;;5054414;28;20490;-70
2022/07/26 01:13:35;;;;;;;3.50;3.20;;;28.90;55.90;;;;;;5059118;28;20493;-70
2022/07/26 01:16:07;;;;;;;3.00;2.80;;;28.80;56.20;;;;;;5069639;28;20491;-70
2022/07/26 01:18:36;;;;;;;3.53;3.20;;;28.70;56.70;;;;;;5064063;28;20445;-70
2022/07/26 01:21:10;;;;;;;5.27;2.43;;;28.70;56.80;;;;;;5072738;28;20917;-70
2022/07/26 01:23:43;;;;;;;5.70;3.70;;;28.60;57.10;;;;;;5062068;28;20492;-70
2022/07/26 01:26:12;;;;;;;2.90;2.67;;;28.60;57.10;;;;;;5070104;28;20473;-70
2022/07/26 01:28:41;;;;;;;3.50;2.63;;;28.60;56.80;;;;;;5060470;28;20467;-70
2022/07/26 01:31:10;;;;;;;2.60;2.37;;;28.60;56.60;;;;;;5054395;28;20449;-70
2022/07/26 01:33:38;;;;;;;2.93;2.67;;;28.60;56.30;;;;;;5058751;28;20501;-70
2022/07/26 01:36:07;;;;;;;3.13;2.40;;;28.60;56.50;;;;;;5062406;28;20458;-70
2022/07/26 01:38:35;;;;;;;2.60;2.40;;;28.50;56.60;;;;;;5051210;28;20461;-70
2022/07/26 01:41:08;;;;;;;3.00;2.80;;;28.60;56.40;;;;;;5052188;28;20469;-72
2022/07/26 01:43:36;;;;;;;3.00;2.13;;;28.60;56.20;;;;;;5058034;28;20457;-70
2022/07/26 01:46:08;;;;;;;2.40;2.20;;;28.60;56.50;;;;;;5070621;28;20499;-70
2022/07/26 01:48:37;;;;;;;2.67;2.47;;;28.60;56.60;;;;;;5051617;28;20533;-70
2022/07/26 01:51:06;;;;;;;2.93;2.40;;;28.60;56.70;;;;;;5054033;28;20492;-70
2022/07/26 01:53:34;;;;;;;2.13;2.03;;;28.70;56.50;;;;;;5056611;28;20471;-70
2022/07/26 01:56:05;;;;;;;2.77;2.13;;;28.70;56.10;;;;;;5064193;28;20547;-70
2022/07/26 01:58:34;;;;;;;6.00;2.40;;;28.70;56.30;;;;;;5068362;28;20463;-70
2022/07/26 02:01:07;;;;;;;1.90;1.80;;;28.80;56.20;;;;;;5072016;28;20436;-70
2022/07/26 02:03:36;;;;;;;2.50;2.30;;;28.70;56.30;;;;;;5072958;28;20462;-70
2022/07/26 02:06:06;;;;;;;1.93;1.77;;;28.70;56.30;;;;;;5074501;28;20877;-70
2022/07/26 02:08:34;;;;;;;5.27;2.60;;;28.70;56.10;;;;;;5074354;28;20444;-70
2022/07/26 02:11:05;;;;;;;2.00;1.90;;;28.70;56.20;;;;;;5075651;28;20438;-70
2022/07/26 02:13:37;;;;;;;2.33;2.23;;;28.70;56.10;;;;;;5074881;28;20457;-70
2022/07/26 02:16:11;;;;;;;4.63;2.40;;;28.80;56.20;;;;;;5069814;28;20485;-70
2022/07/26 02:18:39;;;;;;;3.53;2.03;;;28.80;56.00;;;;;;5064603;28;20997;-70
2022/07/26 02:21:08;;;;;;;2.30;2.17;;;28.80;56.20;;;;;;5058109;28;21258;-70
2022/07/26 02:23:36;;;;;;;4.00;2.10;;;28.70;56.20;;;;;;5057299;28;20489;-70
2022/07/26 02:26:09;;;;;;;2.57;1.67;;;28.70;56.20;;;;;;5060362;28;20500;-70
2022/07/26 02:28:38;;;;;;;2.30;1.57;;;28.70;56.30;;;;;;5063697;28;20531;-70
2022/07/26 02:31:07;;;;;;;2.60;2.40;;;28.70;56.50;;;;;;5055542;28;20492;-70
2022/07/26 02:33:35;;;;;;;1.77;1.63;;;28.60;56.40;;;;;;5059625;28;20469;-70
2022/07/26 02:36:06;;;;;;;2.13;1.93;;;28.60;56.60;;;;;;5060824;28;20539;-70
2022/07/26 02:38:34;;;;;;;1.80;1.70;;;28.50;56.70;;;;;;5054888;28;20453;-70
2022/07/26 02:41:05;;;;;;;2.50;2.30;;;28.50;56.80;;;;;;5055570;28;20461;-70
2022/07/26 02:43:33;;;;;;;2.60;2.00;;;28.50;56.60;;;;;;5058984;28;20792;-70
2022/07/26 02:46:06;;;;;;;2.67;1.80;;;28.40;57.00;;;;;;5065837;28;20528;-70
2022/07/26 02:48:34;;;;;;;3.80;1.60;;;28.50;56.70;;;;;;5055614;28;20515;-70
2022/07/26 02:51:05;;;;;;;1.70;1.60;;;28.50;56.60;;;;;;5054912;28;20474;-70
2022/07/26 02:53:33;;;;;;;2.37;2.17;;;28.50;56.80;;;;;;5058030;28;20443;-70
2022/07/26 02:56:01;;;;;;;3.50;1.93;;;28.50;56.60;;;;;;5069720;28;20848;-70
2022/07/26 02:58:31;;;;;;;2.07;1.87;;;28.50;56.80;;;;;;5068737;28;20461;-70
2022/07/26 03:01:00;;;;;;;1.90;1.80;;;28.50;56.90;;;;;;5065267;28;20842;-70
2022/07/26 03:03:29;;;;;;;2.00;1.90;;;28.50;56.90;;;;;;5058061;28;20484;-70
2022/07/26 03:06:06;;;;;;;2.70;2.50;;;28.60;56.60;;;;;;5059525;28;20471;-70
2022/07/26 03:08:34;;;;;;;3.40;2.07;;;28.60;56.60;;;;;;5059506;28;20489;-70
2022/07/26 03:11:05;;;;;;;2.43;2.10;;;28.60;56.60;;;;;;5071753;28;20513;-70
2022/07/26 03:13:38;;;;;;;1.70;1.60;;;28.40;57.10;;;;;;5063489;28;20592;-70
2022/07/26 03:16:07;;;;;;;3.50;1.83;;;28.40;57.30;;;;;;5065783;28;20844;-70
2022/07/26 03:18:37;;;;;;;3.70;2.00;;;28.30;57.60;;;;;;5074658;28;20485;-70
2022/07/26 03:21:09;;;;;;;2.17;1.97;;;28.20;57.70;;;;;;5057121;28;20437;-70
2022/07/26 03:23:37;;;;;;;2.73;2.20;;;28.00;58.00;;;;;;5056286;28;20475;-70
2022/07/26 03:26:08;;;;;;;2.60;2.40;;;27.90;58.10;;;;;;5074307;28;20468;-70
2022/07/26 03:28:38;;;;;;;2.20;2.10;;;27.80;58.20;;;;;;5054689;28;20432;-70
2022/07/26 03:31:06;;;;;;;2.20;1.87;;;27.90;58.40;;;;;;5060943;28;20984;-70
2022/07/26 03:33:34;;;;;;;2.93;2.10;;;27.90;58.30;;;;;;5071096;28;20442;-70
2022/07/26 03:36:09;;;;;;;3.97;1.90;;;27.90;58.30;;;;;;5054122;28;20823;-70
2022/07/26 03:38:42;;;;;;;2.67;2.10;;;27.80;58.50;;;;;;5052922;28;20468;-70
2022/07/26 03:41:10;;;;;;;1.90;1.80;;;27.80;58.70;;;;;;5054868;28;20441;-70
2022/07/26 03:43:40;;;;;;;2.60;2.40;;;27.90;58.60;;;;;;5057408;28;20523;-70
2022/07/26 03:46:09;;;;;;;2.93;2.07;;;27.90;58.70;;;;;;5065742;28;20564;-70
2022/07/26 03:48:37;;;;;;;1.80;1.70;;;28.00;58.70;;;;;;5054691;28;20455;-70
2022/07/26 03:51:10;;;;;;;2.43;1.93;;;28.10;58.80;;;;;;5053846;28;20579;-70
2022/07/26 03:53:38;;;;;;;2.50;2.00;;;28.10;58.90;;;;;;5055760;28;20461;-70
2022/07/26 03:58:52;;;;;;;2.30;1.70;;;28.10;58.90;;;;;;5053901;28;20967;-71
2022/07/26 04:01:20;;;;;;;2.27;2.10;;;28.10;59.00;;;;;;5053347;28;20521;-70
2022/07/26 04:03:49;;;;;;;2.27;1.80;;;28.10;59.10;;;;;;5060016;28;20446;-70
2022/07/26 04:06:19;;;;;;;2.40;2.20;;;28.10;58.90;;;;;;5062307;28;21021;-72
2022/07/26 04:08:50;;;;;;;2.20;2.10;;;28.20;58.90;;;;;;5052840;28;20512;-69
2022/07/26 04:11:18;;;;;;;2.00;1.90;;;28.10;59.20;;;;;;5056197;28;20551;-70
2022/07/26 04:13:46;;;;;;;2.00;1.90;;;28.10;59.00;;;;;;5061661;28;20494;-70
2022/07/26 04:16:14;;;;;;;2.80;1.50;;;28.10;59.10;;;;;;5055143;28;20457;-70
2022/07/26 04:18:43;;;;;;;2.10;2.00;;;28.10;59.10;;;;;;5056600;28;20994;-70
2022/07/26 04:21:11;;;;;;;2.00;1.90;;;28.00;59.20;;;;;;5052764;28;20465;-70
2022/07/26 04:23:40;;;;;;;1.93;1.83;;;27.90;59.30;;;;;;5052564;28;20476;-70
2022/07/26 04:26:09;;;;;;;2.20;1.83;;;27.80;59.40;;;;;;5057434;28;20539;-70
2022/07/26 04:28:37;;;;;;;2.20;2.00;;;27.80;59.50;;;;;;5053617;28;20506;-70
2022/07/26 04:31:08;;;;;;;1.97;1.70;;;27.70;59.70;;;;;;5053160;28;20451;-70
2022/07/26 04:33:37;;;;;;;2.07;1.53;;;27.60;59.70;;;;;;5056283;28;21027;-70
2022/07/26 04:36:09;;;;;;;2.40;2.20;;;27.60;59.90;;;;;;5057571;28;20487;-70
2022/07/26 04:38:37;;;;;;;2.87;1.97;;;27.60;60.00;;;;;;5054580;28;20565;-70
2022/07/26 04:41:10;;;;;;;2.27;2.00;;;27.40;60.30;;;;;;5054570;28;20466;-70
2022/07/26 04:43:38;;;;;;;1.73;1.63;;;27.30;60.50;;;;;;5053910;28;20466;-70
2022/07/26 04:46:06;;;;;;;1.70;1.60;;;27.30;60.50;;;;;;5054540;28;20893;-70
2022/07/26 04:48:36;;;;;;;2.63;1.87;;;27.30;60.60;;;;;;5060090;28;20511;-70
2022/07/26 04:51:07;;;;;;;1.90;1.70;;;27.10;61.00;;;;;;5055789;28;20561;-70
2022/07/26 04:53:36;;;;;;;1.90;1.80;;;27.20;60.70;;;;;;5057645;28;20911;-70
2022/07/26 04:56:09;;;;;;;1.90;1.80;;;27.20;60.70;;;;;;5054814;28;20504;-70
2022/07/26 04:58:37;;;;;;;1.80;1.70;;;27.20;60.70;;;;;;5052942;28;20487;-70
2022/07/26 05:01:08;;;;;;;6.30;2.10;;;27.10;60.90;;;;;;5052387;28;21327;-70
2022/07/26 05:03:38;;;;;;;1.80;1.70;;;27.00;61.20;;;;;;5059466;28;20493;-69
2022/07/26 05:06:06;;;;;;;2.10;1.90;;;27.00;61.40;;;;;;5054134;28;20577;-69
2022/07/26 05:08:35;;;;;;;4.17;2.00;;;27.00;61.40;;;;;;5054544;28;20550;-69
2022/07/26 05:11:10;;;;;;;1.90;1.80;;;27.00;61.30;;;;;;5068035;28;20456;-70
2022/07/26 05:13:40;;;;;;;2.00;1.80;;;27.00;61.50;;;;;;5062732;28;20454;-69
2022/07/26 05:16:08;;;;;;;1.77;1.67;;;27.00;61.50;;;;;;5049076;28;20862;-69
2022/07/26 05:18:39;;;;;;;2.47;2.23;;;27.00;61.50;;;;;;5055646;28;20447;-69
2022/07/26 05:21:17;;;;;;;2.00;1.80;;;26.90;61.50;;;;;;5058848;28;20453;-69
2022/07/26 05:23:45;;;;;;;1.70;1.60;;;26.90;61.60;;;;;;5053377;28;20485;-69
2022/07/26 05:26:14;;;;;;;2.30;1.70;;;26.90;61.40;;;;;;5053550;28;21075;-69
2022/07/26 05:28:43;;;;;;;2.73;1.67;;;26.80;61.60;;;;;;5054987;28;20454;-69
2022/07/26 05:31:11;;;;;;;1.67;1.57;;;26.90;61.50;;;;;;5047982;28;20561;-69
2022/07/26 05:33:40;;;;;;;1.80;1.70;;;26.80;61.40;;;;;;5050056;28;20473;-69
2022/07/26 05:36:08;;;;;;;2.07;1.87;;;26.90;61.30;;;;;;5055825;28;20505;-69
2022/07/26 05:38:37;;;;;;;2.17;1.80;;;26.90;61.20;;;;;;5056694;28;20519;-69
2022/07/26 05:41:08;;;;;;;2.50;1.63;;;26.90;61.30;;;;;;5051757;28;20946;-69
2022/07/26 05:43:36;;;;;;;1.50;1.40;;;26.80;61.40;;;;;;5056417;28;20501;-69
2022/07/26 05:46:10;;;;;;;3.57;2.10;;;27.00;61.30;;;;;;5057639;28;20460;-69
2022/07/26 05:48:39;;;;;;;3.73;2.47;;;27.00;61.20;;;;;;5054955;28;20553;-69
2022/07/26 05:51:08;;;;;;;4.00;2.47;;;27.00;61.20;;;;;;5053126;28;21006;-71
2022/07/26 05:53:37;;;;;;;1.70;1.60;;;27.10;61.30;;;;;;5051690;28;20540;-69
2022/07/26 05:56:08;;;;;;;3.77;2.30;;;27.00;61.30;;;;;;5049537;28;20514;-69
2022/07/26 05:58:36;;;;;;;2.07;1.50;;;27.00;61.50;;;;;;5059001;28;20990;-69
2022/07/26 06:01:09;;;;;;;1.80;1.70;;;26.90;61.70;;;;;;5052731;28;20881;-69
2022/07/26 06:03:37;;;;;;;2.70;2.40;;;26.90;61.80;;;;;;5050001;28;20492;-69
2022/07/26 06:06:10;;;;;;;2.30;1.43;;;27.00;61.90;;;;;;5048594;28;20811;-69
2022/07/26 06:08:39;;;;;;;6.83;2.50;;;27.00;62.00;;;;;;5054473;28;20474;-69
2022/07/26 06:11:08;;;;;;;2.80;2.00;;;26.90;62.10;;;;;;5061490;28;21040;-69
2022/07/26 06:13:36;;;;;;;2.20;2.10;;;27.00;61.90;;;;;;5049279;28;21024;-70
2022/07/26 06:16:09;;;;;;;1.97;1.77;;;27.00;62.00;;;;;;5051167;28;20482;-70
2022/07/26 06:18:37;;;;;;;1.60;1.50;;;27.10;62.20;;;;;;5052353;28;20454;-70
2022/07/26 06:21:08;;;;;;;3.40;1.80;;;27.10;62.10;;;;;;5053731;28;20517;-69
2022/07/26 06:23:36;;;;;;;2.00;1.77;;;27.10;62.30;;;;;;5050043;28;20462;-69
2022/07/26 06:26:08;;;;;;;2.80;1.60;;;27.10;62.40;;;;;;5063765;28;20454;-69
2022/07/26 06:28:38;;;;;;;2.10;1.70;;;27.10;62.20;;;;;;5052059;28;20528;-69
2022/07/26 06:31:10;;;;;;;2.23;2.03;;;27.10;62.30;;;;;;5065293;28;20517;-69
2022/07/26 06:33:39;;;;;;;1.73;1.63;;;27.20;61.90;;;;;;5062072;28;20548;-70
2022/07/26 06:36:07;;;;;;;2.10;1.67;;;27.30;61.80;;;;;;5057441;28;20510;-70
2022/07/26 06:38:36;;;;;;;1.93;1.83;;;27.40;61.50;;;;;;5058320;28;20901;-70
2022/07/26 06:41:07;;;;;;;2.33;2.00;;;27.40;61.50;;;;;;5069023;28;20481;-70
2022/07/26 06:43:35;;;;;;;4.80;1.90;;;27.40;61.60;;;;;;5062758;28;20878;-70
2022/07/26 06:46:07;;;;;;;2.07;1.60;;;27.40;61.50;;;;;;5050782;28;20466;-70
2022/07/26 06:48:37;;;;;;;2.27;2.07;;;27.40;61.60;;;;;;5051921;28;21040;-70
2022/07/26 06:51:14;;;;;;;2.00;1.90;;;27.30;61.60;;;;;;5057049;28;20489;-70
2022/07/26 06:53:42;;;;;;;1.97;1.63;;;27.30;61.60;;;;;;5055692;28;21225;-70
2022/07/26 06:56:13;;;;;;;2.43;1.50;;;27.40;61.50;;;;;;5068381;28;20937;-70
2022/07/26 06:58:42;;;;;;;1.90;1.80;;;27.40;61.50;;;;;;5062609;28;20823;-69
2022/07/26 07:01:10;;;;;;;1.90;1.77;;;27.40;61.40;;;;;;5061968;28;20507;-69
2022/07/26 07:03:39;;;;;;;2.10;1.90;;;27.50;61.50;;;;;;5064290;28;20932;-70
2022/07/26 07:06:08;;;;;;;1.70;1.60;;;27.60;61.30;;;;;;5068481;28;20467;-70
2022/07/26 07:08:36;;;;;;;2.20;1.90;;;27.60;61.00;;;;;;5066188;28;20481;-70
2022/07/26 07:11:07;;;;;;;2.33;2.17;;;27.70;61.00;;;;;;5066658;28;20448;-69
2022/07/26 07:13:35;;;;;;;2.50;1.50;;;27.70;61.00;;;;;;5069511;28;20443;-70
2022/07/26 07:16:06;;;;;;;2.70;1.80;;;27.80;61.00;;;;;;5069064;28;20449;-70
2022/07/26 07:18:34;;;;;;;2.23;2.13;;;27.90;60.70;;;;;;5058778;28;20457;-70
2022/07/26 07:21:06;;;;;;;3.20;2.00;;;27.90;60.50;;;;;;5060529;28;20951;-70
2022/07/26 07:23:34;;;;;;;2.30;2.10;;;27.80;60.70;;;;;;5064170;28;20456;-70
2022/07/26 07:26:02;;;;;;;2.70;2.50;;;28.00;60.70;;;;;;5058055;28;20484;-69
2022/07/26 07:28:37;;;;;;;2.17;2.07;;;28.10;60.50;;;;;;5062199;28;20485;-70
2022/07/26 07:31:08;;;;;;;2.27;2.07;;;28.10;60.10;;;;;;5071177;28;20514;-70
2022/07/26 07:33:36;;;;;;;2.17;1.83;;;28.20;59.80;;;;;;5068036;28;20483;-70
2022/07/26 07:36:21;;;;;;;2.37;2.17;;;28.20;59.90;;;;;;5058041;28;20448;-70
2022/07/26 07:38:50;;;;;;;2.50;2.30;;;28.20;59.90;;;;;;5050636;28;20445;-70
2022/07/26 07:41:18;;;;;;;3.00;1.60;;;28.10;60.00;;;;;;5057166;28;20727;-70
2022/07/26 07:43:47;;;;;;;2.20;2.10;;;28.10;59.90;;;;;;5061367;28;20846;-69
2022/07/26 07:46:15;;;;;;;2.00;1.90;;;28.10;59.90;;;;;;5061410;28;20529;-70
2022/07/26 07:48:43;;;;;;;2.97;2.40;;;28.10;59.90;;;;;;5062236;28;20467;-69
2022/07/26 07:56:23;;;;;;;1.90;1.80;;;28.00;59.70;;;;;;5061660;28;20435;-69
2022/07/26 07:58:53;;;;;;;2.00;1.90;;;27.90;58.70;;;;;;5064594;28;20462;-69
2022/07/26 08:01:21;;;;;;;3.20;1.70;;;27.80;58.60;;;;;;5068221;28;20461;-69
2022/07/26 08:04:07;;;;;;;2.83;2.13;;;27.80;58.60;;;;;;5060448;28;20448;-69
2022/07/26 08:06:35;;;;;;;2.80;2.30;;;27.80;58.50;;;;;;5061903;28;20943;-71
2022/07/26 08:09:04;;;;;;;2.33;2.07;;;27.80;58.20;;;;;;5062514;28;21251;-70
2022/07/26 08:11:33;;;;;;;32.33;9.50;;;27.80;57.80;;;;;;5065660;28;20459;-68
2022/07/26 08:14:03;;;;;;;18.60;6.40;;;28.00;57.90;;;;;;5054582;28;20452;-69
2022/07/26 08:16:31;;;;;;;4.87;3.00;;;28.20;57.20;;;;;;5057900;28;20490;-68
2022/07/26 08:19:00;;;;;;;5.17;2.27;;;28.20;57.70;;;;;;5058002;28;20511;-69
2022/07/26 08:21:29;;;;;;;5.23;2.33;;;28.30;58.20;;;;;;5059685;28;20447;-69
2022/07/26 08:23:57;;;;;;;2.93;2.17;;;28.40;58.30;;;;;;5068126;28;20841;-69
2022/07/26 08:26:26;;;;;;;4.10;2.83;;;28.50;58.20;;;;;;5064990;28;20444;-69
2022/07/26 08:28:54;;;;;;;2.90;2.60;;;28.60;58.30;;;;;;5059314;28;20555;-69
2022/07/26 08:31:29;;;;;;;2.43;1.80;;;28.70;58.20;;;;;;5056402;28;20465;-69
2022/07/26 08:33:57;;;;;;;4.37;2.53;;;28.70;58.30;;;;;;5068735;28;20516;-69
2022/07/26 08:36:25;;;;;;;3.40;2.10;;;28.80;58.30;;;;;;5056240;28;20452;-69
2022/07/26 08:39:00;;;;;;;5.87;4.00;;;28.90;58.20;;;;;;5062043;28;20456;-69
2022/07/26 08:41:29;;;;;;;2.87;1.90;;;28.90;58.20;;;;;;5069080;28;20451;-69
2022/07/26 08:44:05;;;;;;;1.87;1.73;;;29.00;58.10;;;;;;5057660;28;20449;-69
2022/07/26 08:46:37;;;;;;;2.00;1.87;;;29.00;58.10;;;;;;5065325;28;20478;-69
2022/07/26 08:49:08;;;;;;;2.77;2.60;;;29.10;58.00;;;;;;5068820;28;20525;-69
2022/07/26 08:51:39;;;;;;;2.80;2.20;;;29.10;58.00;;;;;;5064887;28;20515;-69
2022/07/26 08:54:07;;;;;;;3.57;2.20;;;29.20;57.90;;;;;;5056169;28;20858;-69
2022/07/26 08:56:41;;;;;;;6.30;2.00;;;29.20;57.90;;;;;;5057813;28;20458;-69
2022/07/26 08:59:13;;;;;;;2.03;1.73;;;29.20;57.90;;;;;;5063514;28;20494;-69
2022/07/26 09:01:57;;;;;;;1.93;1.83;;;29.30;58.00;;;;;;5059535;28;20464;-70
2022/07/26 09:04:27;;;;;;;1.90;1.60;;;29.30;57.90;;;;;;5065208;28;20486;-69
2022/07/26 09:07:04;;;;;;;2.40;2.10;;;29.40;58.00;;;;;;5052691;28;20471;-69
2022/07/26 09:09:33;;;;;;;2.10;1.90;;;29.40;58.00;;;;;;5056797;28;20516;-69
2022/07/26 09:12:14;;;;;;;2.60;1.83;;;29.40;57.80;;;;;;5065327;28;20519;-68
2022/07/26 09:14:45;;;;;;;2.13;1.70;;;29.40;57.90;;;;;;5053900;28;20499;-69
2022/07/26 09:17:17;;;;;;;2.87;2.00;;;29.50;58.00;;;;;;5058183;28;20465;-70
2022/07/26 09:19:46;;;;;;;3.30;2.17;;;29.50;58.10;;;;;;5056822;28;20949;-70
2022/07/26 09:22:16;;;;;;;1.97;1.83;;;29.50;58.00;;;;;;5055673;28;20472;-70
2022/07/26 09:24:46;;;;;;;2.00;1.90;;;29.50;58.10;;;;;;5058229;28;20455;-69
2022/07/26 09:27:15;;;;;;;2.13;2.03;;;29.60;58.00;;;;;;5058855;28;20563;-70
2022/07/26 09:29:46;;;;;;;1.60;1.50;;;29.60;57.80;;;;;;5049892;28;20463;-70
2022/07/26 09:32:18;;;;;;;3.10;1.80;;;29.60;57.80;;;;;;5066316;28;20504;-70
2022/07/26 09:34:48;;;;;;;1.87;1.40;;;29.60;57.70;;;;;;5065759;28;20503;-70
2022/07/26 09:37:33;;;;;;;2.30;2.10;;;29.70;58.00;;;;;;5058664;28;20517;-70
2022/07/26 09:40:04;;;;;;;1.80;1.40;;;29.70;58.00;;;;;;5059202;28;20454;-68
2022/07/26 09:42:32;;;;;;;1.70;1.60;;;29.70;58.00;;;;;;5057124;28;20544;-68
2022/07/26 09:45:01;;;;;;;2.33;1.83;;;29.70;57.90;;;;;;5066773;28;20482;-69
2022/07/26 09:47:38;;;;;;;2.20;1.80;;;29.70;57.90;;;;;;5063511;28;20557;-70
2022/07/26 09:50:11;;;;;;;2.07;1.80;;;29.70;57.80;;;;;;5060848;28;20504;-70
2022/07/26 09:52:39;;;;;;;1.87;1.63;;;29.80;57.80;;;;;;5064553;28;20476;-70
2022/07/26 09:55:09;;;;;;;1.90;1.70;;;29.80;57.80;;;;;;5062339;28;20486;-69
2022/07/26 09:57:38;;;;;;;1.93;1.67;;;29.80;58.00;;;;;;5057788;28;20472;-70
2022/07/26 10:00:07;;;;;;;1.60;1.50;;;29.80;57.80;;;;;;5051883;28;20463;-70
2022/07/26 10:02:37;;;;;;;1.60;1.50;;;29.80;57.70;;;;;;5062338;28;20454;-69
2022/07/26 10:05:06;;;;;;;1.50;1.43;;;29.90;57.60;;;;;;5071128;28;20950;-69
2022/07/26 10:07:35;;;;;;;1.60;1.50;;;29.90;57.50;;;;;;5067410;28;20460;-68
2022/07/26 10:10:07;;;;;;;1.80;1.70;;;29.90;57.70;;;;;;5063797;28;20570;-68
2022/07/26 10:12:35;;;;;;;1.53;1.43;;;29.90;57.80;;;;;;5055096;28;20515;-68
2022/07/26 10:15:04;;;;;;;1.57;1.47;;;30.00;57.80;;;;;;5059103;28;20503;-68
2022/07/26 10:17:42;;;;;;;1.40;1.40;;;30.00;57.60;;;;;;5064433;28;20457;-68
2022/07/26 10:20:31;;;;;;;2.07;1.33;;;30.00;57.80;;;;;;5060302;28;20476;-69
2022/07/26 10:23:00;;;;;;;1.43;1.33;;;30.00;57.60;;;;;;5065072;28;20457;-69
2022/07/26 10:25:47;;;;;;;1.43;1.33;;;30.00;57.40;;;;;;5067295;28;20511;-75
2022/07/26 10:28:25;;;;;;;1.70;1.60;;;30.10;57.70;;;;;;5057410;28;20548;-75
2022/07/26 10:31:24;;;;;;;2.13;1.93;;;30.10;57.10;;;;;;5066051;28;20818;-72
2022/07/26 10:33:55;;;;;;;3.27;1.70;;;30.20;56.70;;;;;;5062832;28;20525;-73
2022/07/26 10:36:32;;;;;;;2.13;1.93;;;30.20;56.10;;;;;;5059411;28;20462;-73
2022/07/26 10:39:10;;;;;;;1.90;1.80;;;30.20;56.00;;;;;;5061633;28;20482;-73
2022/07/26 10:41:44;;;;;;;2.23;1.90;;;30.30;55.80;;;;;;5057444;28;20446;-74
2022/07/26 10:44:18;;;;;;;1.93;1.53;;;30.30;55.80;;;;;;5055075;28;20453;-74
2022/07/26 10:47:01;;;;;;;2.10;2.00;;;30.30;55.60;;;;;;5057939;28;20456;-74
2022/07/26 10:49:36;;;;;;;2.20;2.10;;;30.30;55.70;;;;;;5056480;28;20517;-73
2022/07/26 10:52:11;;;;;;;2.20;2.10;;;30.30;55.50;;;;;;5057250;28;20475;-73
2022/07/26 10:55:18;;;;;;;4.03;3.10;;;30.40;55.30;;;;;;5055386;28;20452;-73
2022/07/26 10:57:48;;;;;;;2.40;2.20;;;30.40;55.30;;;;;;5059079;28;20511;-75
2022/07/26 11:00:23;;;;;;;2.37;2.17;;;30.40;55.40;;;;;;5056172;28;20450;-74
2022/07/26 11:02:59;;;;;;;2.27;2.17;;;30.40;55.00;;;;;;5056515;28;20448;-73
2022/07/26 11:05:33;;;;;;;1.80;1.67;;;30.40;54.80;;;;;;5059534;28;20461;-74
2022/07/26 11:08:10;;;;;;;2.47;2.27;;;30.40;54.70;;;;;;5055860;28;20517;-74
2022/07/26 11:10:40;;;;;;;3.00;2.13;;;30.40;55.00;;;;;;5055161;28;21073;-73
2022/07/26 11:13:14;;;;;;;6.73;2.40;;;30.50;54.80;;;;;;5053838;28;20458;-73
2022/07/26 11:15:45;;;;;;;1.97;1.87;;;30.50;55.10;;;;;;5059046;28;20485;-72
2022/07/26 11:18:21;;;;;;;4.40;2.50;;;30.40;54.70;;;;;;5056235;28;20452;-73
2022/07/26 11:20:53;;;;;;;2.73;2.30;;;30.50;54.40;;;;;;5057496;28;20954;-73
2022/07/26 11:23:28;;;;;;;2.13;2.03;;;30.50;54.50;;;;;;5055686;28;20518;-72
2022/07/26 11:26:16;;;;;;;2.33;2.13;;;30.50;54.40;;;;;;5057543;28;20837;-72
2022/07/26 11:28:53;;;;;;;2.00;1.90;;;30.50;54.60;;;;;;5055714;28;20454;-72
2022/07/26 11:31:24;;;;;;;2.40;2.20;;;30.50;54.50;;;;;;5054367;28;20469;-73
2022/07/26 11:34:18;;;;;;;2.73;2.53;;;30.60;54.80;;;;;;5053995;28;21043;-73
2022/07/26 11:36:49;;;;;;;2.97;2.23;;;30.60;54.90;;;;;;5058793;28;20862;-73
2022/07/26 11:39:22;;;;;;;1.77;1.67;;;30.60;54.80;;;;;;5057923;28;20534;-73
2022/07/26 11:41:56;;;;;;;2.60;2.40;;;30.60;54.70;;;;;;5058486;28;20457;-74
2022/07/26 11:44:25;;;;;;;2.27;2.00;;;30.60;54.40;;;;;;5056661;28;20454;-74
2022/07/26 11:46:54;;;;;;;1.63;1.53;;;30.60;54.10;;;;;;5060019;28;20464;-74
2022/07/26 11:49:24;;;;;;;2.20;1.97;;;30.60;53.60;;;;;;5054112;28;20457;-74
2022/07/26 11:52:15;;;;;;;4.03;1.83;;;30.50;53.10;;;;;;5065466;28;20475;-72
2022/07/26 11:54:53;;;;;;;3.43;1.97;;;30.50;52.10;;;;;;5071119;28;20863;-72
2022/07/26 11:57:21;;;;;;;3.17;1.80;;;30.40;52.10;;;;;;5069151;28;20465;-72
2022/07/26 11:59:50;;;;;;;1.80;1.70;;;30.40;51.60;;;;;;5072166;28;20513;-74
2022/07/26 12:02:21;;;;;;;2.10;1.83;;;30.40;51.80;;;;;;5053190;28;20546;-74
2022/07/26 12:04:49;;;;;;;3.93;2.20;;;30.50;51.80;;;;;;5073813;28;20471;-74
2022/07/26 12:07:20;;;;;;;3.33;1.90;;;30.50;51.90;;;;;;5061726;28;20913;-74
2022/07/26 12:09:50;;;;;;;2.40;1.80;;;30.60;51.90;;;;;;5053783;28;20458;-74
2022/07/26 12:12:23;;;;;;;2.00;1.83;;;30.60;52.00;;;;;;5062364;28;20853;-74
2022/07/26 12:14:57;;;;;;;3.90;2.13;;;30.60;52.10;;;;;;5067225;28;20927;-74
2022/07/26 12:17:26;;;;;;;4.23;2.30;;;30.70;52.20;;;;;;5055750;28;20457;-70
2022/07/26 12:20:11;;;;;;;2.20;1.80;;;30.70;52.50;;;;;;5055306;28;20465;-72
2022/07/26 12:22:41;;;;;;;5.80;2.43;;;30.70;52.90;;;;;;5056342;28;20562;-72
2022/07/26 12:25:10;;;;;;;4.63;2.20;;;30.60;53.40;;;;;;5052767;28;20444;-70
2022/07/26 12:27:46;;;;;;;2.97;2.33;;;30.60;53.90;;;;;;5062016;28;21019;-70
2022/07/26 12:30:16;;;;;;;3.90;2.10;;;30.60;54.30;;;;;;5065070;28;20472;-71
2022/07/26 12:32:47;;;;;;;3.13;2.17;;;30.60;54.70;;;;;;5058850;28;20449;-71
2022/07/26 12:35:24;;;;;;;2.40;2.20;;;30.60;55.00;;;;;;5066493;28;20494;-69
2022/07/26 12:37:54;;;;;;;3.10;2.00;;;30.60;55.20;;;;;;5054193;28;20460;-70
2022/07/26 12:40:23;;;;;;;3.10;2.50;;;30.60;55.50;;;;;;5055662;28;20527;-71
2022/07/26 12:42:56;;;;;;;2.57;2.10;;;30.60;55.70;;;;;;5055337;28;20458;-70
2022/07/26 12:45:31;;;;;;;2.43;1.80;;;30.60;55.90;;;;;;5056223;28;20485;-71
2022/07/26 12:48:01;;;;;;;3.33;2.00;;;30.70;56.10;;;;;;5052945;28;20479;-70
2022/07/26 12:50:30;;;;;;;3.23;2.10;;;30.70;56.20;;;;;;5058027;28;20498;-71
2022/07/26 12:53:02;;;;;;;2.00;1.90;;;30.80;56.30;;;;;;5051990;28;20485;-70
2022/07/26 12:55:30;;;;;;;2.70;1.63;;;30.80;56.40;;;;;;5053458;28;20489;-71
2022/07/26 12:57:59;;;;;;;2.17;1.70;;;30.80;56.60;;;;;;5057413;28;20503;-71
2022/07/26 13:00:28;;;;;;;2.73;2.53;;;30.80;56.60;;;;;;5051792;28;20839;-72
2022/07/26 13:02:57;;;;;;;3.30;1.53;;;30.90;56.60;;;;;;5053383;28;20503;-71
2022/07/26 13:05:26;;;;;;;3.00;1.60;;;30.90;56.60;;;;;;5053435;28;20451;-71
2022/07/26 13:07:54;;;;;;;2.73;1.90;;;30.90;56.60;;;;;;5052881;28;20942;-71
2022/07/26 13:10:24;;;;;;;2.83;1.87;;;30.90;56.70;;;;;;5054041;28;20547;-70
2022/07/26 13:13:02;;;;;;;2.10;1.53;;;31.00;56.60;;;;;;5057943;28;20457;-71
2022/07/26 13:15:31;;;;;;;1.83;1.70;;;31.00;56.60;;;;;;5060275;28;20468;-71